sensor_id;sensor_type;location;lat;lon;timestamp;P1;durP1;ratioP1;P2;durP2;ratioP2
18336;SDS011;9294;51.106;7.028;2023-04-24T00:00:36;2.08;;;1.98;;
18336;SDS011;9294;51.106;7.028;2023-04-24T00:03:05;1.67;;;1.67;;
18336;SDS011;9294;51.106;7.028;2023-04-24T00:05:32;1.95;;;1.90;;
18336;SDS011;9294;51.106;7.028;2023-04-24T00:07:59;1.75;;;1.70;;
18336;SDS011;9294;51.106;7.028;2023-04-24T00:10:26;1.90;;;1.90;;
18336;SDS011;9294;51.106;7.028;2023-04-24T00:12:53;1.75;;;1.75;;
18336;SDS011;9294;51.106;7.028;2023-04-24T00:15:19;2.30;;;2.20;;
18336;SDS011;9294;51.106;7.028;2023-04-24T00:17:47;1.55;;;1.55;;
18336;SDS011;9294;51.106;7.028;2023-04-24T00:20:14;1.70;;;1.70;;
18336;SDS011;9294;51.106;7.028;2023-04-24T00:22:41;1.88;;;1.88;;
18336;SDS011;9294;51.106;7.028;2023-04-24T00:25:08;2.13;;;2.03;;
18336;SDS011;9294;51.106;7.028;2023-04-24T00:27:36;1.70;;;1.70;;
18336;SDS011;9294;51.106;7.028;2023-04-24T00:30:04;1.58;;;1.58;;
18336;SDS011;9294;51.106;7.028;2023-04-24T00:32:31;1.63;;;1.63;;
18336;SDS011;9294;51.106;7.028;2023-04-24T00:34:59;1.40;;;1.40;;
18336;SDS011;9294;51.106;7.028;2023-04-24T00:37:26;2.00;;;1.95;;
18336;SDS011;9294;51.106;7.028;2023-04-24T00:39:53;1.50;;;1.50;;
18336;SDS011;9294;51.106;7.028;2023-04-24T00:42:20;1.48;;;1.48;;
18336;SDS011;9294;51.106;7.028;2023-04-24T00:44:47;1.50;;;1.50;;
18336;SDS011;9294;51.106;7.028;2023-04-24T00:47:14;1.35;;;1.35;;
18336;SDS011;9294;51.106;7.028;2023-04-24T00:49:41;1.92;;;1.83;;
18336;SDS011;9294;51.106;7.028;2023-04-24T00:52:09;1.52;;;1.52;;
18336;SDS011;9294;51.106;7.028;2023-04-24T00:54:37;1.80;;;1.70;;
18336;SDS011;9294;51.106;7.028;2023-04-24T00:57:04;1.20;;;1.20;;
18336;SDS011;9294;51.106;7.028;2023-04-24T00:59:30;1.30;;;1.30;;
18336;SDS011;9294;51.106;7.028;2023-04-24T01:01:58;1.80;;;1.60;;
18336;SDS011;9294;51.106;7.028;2023-04-24T01:04:25;1.33;;;1.33;;
18336;SDS011;9294;51.106;7.028;2023-04-24T01:06:52;1.45;;;1.45;;
18336;SDS011;9294;51.106;7.028;2023-04-24T01:09:22;1.55;;;1.50;;
18336;SDS011;9294;51.106;7.028;2023-04-24T01:11:49;1.35;;;1.35;;
18336;SDS011;9294;51.106;7.028;2023-04-24T01:14:16;1.35;;;1.35;;
18336;SDS011;9294;51.106;7.028;2023-04-24T01:16:43;1.20;;;1.20;;
18336;SDS011;9294;51.106;7.028;2023-04-24T01:19:10;1.40;;;1.40;;
18336;SDS011;9294;51.106;7.028;2023-04-24T01:21:37;1.33;;;1.33;;
18336;SDS011;9294;51.106;7.028;2023-04-24T01:24:06;1.50;;;1.50;;
18336;SDS011;9294;51.106;7.028;2023-04-24T01:26:33;1.40;;;1.40;;
18336;SDS011;9294;51.106;7.028;2023-04-24T01:29:00;1.27;;;1.27;;
18336;SDS011;9294;51.106;7.028;2023-04-24T01:31:26;1.52;;;1.52;;
18336;SDS011;9294;51.106;7.028;2023-04-24T01:33:54;1.42;;;1.42;;
18336;SDS011;9294;51.106;7.028;2023-04-24T01:36:22;1.30;;;1.30;;
18336;SDS011;9294;51.106;7.028;2023-04-24T01:38:50;1.40;;;1.40;;
18336;SDS011;9294;51.106;7.028;2023-04-24T01:41:19;1.30;;;1.30;;
18336;SDS011;9294;51.106;7.028;2023-04-24T01:43:46;1.30;;;1.30;;
18336;SDS011;9294;51.106;7.028;2023-04-24T01:46:14;1.30;;;1.30;;
18336;SDS011;9294;51.106;7.028;2023-04-24T01:48:41;1.50;;;1.50;;
18336;SDS011;9294;51.106;7.028;2023-04-24T01:51:07;1.20;;;1.20;;
18336;SDS011;9294;51.106;7.028;2023-04-24T01:53:34;1.95;;;1.40;;
18336;SDS011;9294;51.106;7.028;2023-04-24T01:56:01;1.23;;;1.23;;
18336;SDS011;9294;51.106;7.028;2023-04-24T01:58:30;1.10;;;1.10;;
18336;SDS011;9294;51.106;7.028;2023-04-24T02:00:56;1.50;;;1.50;;
18336;SDS011;9294;51.106;7.028;2023-04-24T02:03:23;1.48;;;1.48;;
18336;SDS011;9294;51.106;7.028;2023-04-24T02:05:51;1.33;;;1.23;;
18336;SDS011;9294;51.106;7.028;2023-04-24T02:08:18;1.30;;;1.30;;
18336;SDS011;9294;51.106;7.028;2023-04-24T02:10:44;1.20;;;1.20;;
18336;SDS011;9294;51.106;7.028;2023-04-24T02:13:11;1.35;;;1.35;;
18336;SDS011;9294;51.106;7.028;2023-04-24T02:15:39;1.10;;;1.10;;
18336;SDS011;9294;51.106;7.028;2023-04-24T02:18:06;1.20;;;1.20;;
18336;SDS011;9294;51.106;7.028;2023-04-24T02:20:32;1.55;;;1.45;;
18336;SDS011;9294;51.106;7.028;2023-04-24T02:23:00;1.20;;;1.20;;
18336;SDS011;9294;51.106;7.028;2023-04-24T02:25:27;1.00;;;1.00;;
18336;SDS011;9294;51.106;7.028;2023-04-24T02:27:53;1.20;;;1.20;;
18336;SDS011;9294;51.106;7.028;2023-04-24T02:30:20;1.15;;;1.15;;
18336;SDS011;9294;51.106;7.028;2023-04-24T02:32:48;1.33;;;1.33;;
18336;SDS011;9294;51.106;7.028;2023-04-24T02:35:15;1.08;;;1.08;;
18336;SDS011;9294;51.106;7.028;2023-04-24T02:37:42;1.23;;;1.23;;
18336;SDS011;9294;51.106;7.028;2023-04-24T02:40:09;1.48;;;1.38;;
18336;SDS011;9294;51.106;7.028;2023-04-24T02:42:35;1.20;;;1.20;;
18336;SDS011;9294;51.106;7.028;2023-04-24T02:45:02;1.17;;;1.17;;
18336;SDS011;9294;51.106;7.028;2023-04-24T02:47:30;1.35;;;1.35;;
18336;SDS011;9294;51.106;7.028;2023-04-24T02:49:58;1.20;;;1.20;;
18336;SDS011;9294;51.106;7.028;2023-04-24T02:52:24;0.98;;;0.98;;
18336;SDS011;9294;51.106;7.028;2023-04-24T02:54:51;1.20;;;1.20;;
18336;SDS011;9294;51.106;7.028;2023-04-24T02:57:18;1.08;;;1.08;;
18336;SDS011;9294;51.106;7.028;2023-04-24T02:59:45;1.80;;;1.70;;
18336;SDS011;9294;51.106;7.028;2023-04-24T03:02:12;1.55;;;1.55;;
18336;SDS011;9294;51.106;7.028;2023-04-24T03:04:38;1.30;;;1.30;;
18336;SDS011;9294;51.106;7.028;2023-04-24T03:07:09;1.35;;;1.35;;
18336;SDS011;9294;51.106;7.028;2023-04-24T03:09:35;1.17;;;1.17;;
18336;SDS011;9294;51.106;7.028;2023-04-24T03:12:02;1.30;;;1.30;;
18336;SDS011;9294;51.106;7.028;2023-04-24T03:14:29;1.30;;;1.30;;
18336;SDS011;9294;51.106;7.028;2023-04-24T03:16:56;1.50;;;1.50;;
18336;SDS011;9294;51.106;7.028;2023-04-24T03:19:23;1.42;;;1.42;;
18336;SDS011;9294;51.106;7.028;2023-04-24T03:21:50;1.13;;;1.13;;
18336;SDS011;9294;51.106;7.028;2023-04-24T03:24:18;1.35;;;1.35;;
18336;SDS011;9294;51.106;7.028;2023-04-24T03:26:45;1.35;;;1.35;;
18336;SDS011;9294;51.106;7.028;2023-04-24T03:29:12;1.20;;;1.20;;
18336;SDS011;9294;51.106;7.028;2023-04-24T03:31:39;1.20;;;1.20;;
18336;SDS011;9294;51.106;7.028;2023-04-24T03:34:05;1.05;;;1.05;;
18336;SDS011;9294;51.106;7.028;2023-04-24T03:36:32;1.10;;;1.10;;
18336;SDS011;9294;51.106;7.028;2023-04-24T03:38:59;1.20;;;1.20;;
18336;SDS011;9294;51.106;7.028;2023-04-24T03:41:27;1.30;;;1.30;;
18336;SDS011;9294;51.106;7.028;2023-04-24T03:43:53;1.27;;;1.27;;
18336;SDS011;9294;51.106;7.028;2023-04-24T03:46:20;1.20;;;1.20;;
18336;SDS011;9294;51.106;7.028;2023-04-24T03:48:47;1.27;;;1.27;;
18336;SDS011;9294;51.106;7.028;2023-04-24T03:51:14;1.27;;;1.27;;
18336;SDS011;9294;51.106;7.028;2023-04-24T03:53:40;1.20;;;1.20;;
18336;SDS011;9294;51.106;7.028;2023-04-24T03:56:07;1.00;;;1.00;;
18336;SDS011;9294;51.106;7.028;2023-04-24T03:58:35;1.20;;;1.20;;
18336;SDS011;9294;51.106;7.028;2023-04-24T04:01:02;1.10;;;1.10;;
18336;SDS011;9294;51.106;7.028;2023-04-24T04:03:28;1.05;;;1.05;;
18336;SDS011;9294;51.106;7.028;2023-04-24T04:05:55;1.65;;;1.55;;
18336;SDS011;9294;51.106;7.028;2023-04-24T04:08:22;1.10;;;1.10;;
18336;SDS011;9294;51.106;7.028;2023-04-24T04:10:49;1.48;;;1.42;;
18336;SDS011;9294;51.106;7.028;2023-04-24T04:13:15;1.10;;;1.10;;
18336;SDS011;9294;51.106;7.028;2023-04-24T04:15:43;1.27;;;1.27;;
18336;SDS011;9294;51.106;7.028;2023-04-24T04:18:10;1.13;;;1.00;;
18336;SDS011;9294;51.106;7.028;2023-04-24T04:20:37;1.30;;;1.30;;
18336;SDS011;9294;51.106;7.028;2023-04-24T04:23:04;1.40;;;1.40;;
18336;SDS011;9294;51.106;7.028;2023-04-24T04:25:30;1.20;;;1.20;;
18336;SDS011;9294;51.106;7.028;2023-04-24T04:27:57;1.20;;;1.20;;
18336;SDS011;9294;51.106;7.028;2023-04-24T04:30:24;1.23;;;1.23;;
18336;SDS011;9294;51.106;7.028;2023-04-24T04:32:53;1.10;;;1.10;;
18336;SDS011;9294;51.106;7.028;2023-04-24T04:35:20;1.27;;;1.27;;
18336;SDS011;9294;51.106;7.028;2023-04-24T04:37:46;1.70;;;1.60;;
18336;SDS011;9294;51.106;7.028;2023-04-24T04:40:13;1.30;;;1.30;;
18336;SDS011;9294;51.106;7.028;2023-04-24T04:42:40;1.30;;;1.30;;
18336;SDS011;9294;51.106;7.028;2023-04-24T04:45:07;1.30;;;1.30;;
18336;SDS011;9294;51.106;7.028;2023-04-24T04:47:36;1.40;;;1.40;;
18336;SDS011;9294;51.106;7.028;2023-04-24T04:50:06;1.67;;;1.67;;
18336;SDS011;9294;51.106;7.028;2023-04-24T04:52:33;1.40;;;1.40;;
18336;SDS011;9294;51.106;7.028;2023-04-24T04:55:00;1.20;;;1.20;;
18336;SDS011;9294;51.106;7.028;2023-04-24T04:57:27;1.40;;;1.40;;
18336;SDS011;9294;51.106;7.028;2023-04-24T04:59:53;1.35;;;1.35;;
18336;SDS011;9294;51.106;7.028;2023-04-24T05:02:20;1.33;;;1.23;;
18336;SDS011;9294;51.106;7.028;2023-04-24T05:04:47;1.52;;;1.52;;
18336;SDS011;9294;51.106;7.028;2023-04-24T05:07:15;1.20;;;1.20;;
18336;SDS011;9294;51.106;7.028;2023-04-24T05:09:41;1.42;;;1.42;;
18336;SDS011;9294;51.106;7.028;2023-04-24T05:12:09;1.73;;;1.70;;
18336;SDS011;9294;51.106;7.028;2023-04-24T05:14:36;1.42;;;1.35;;
18336;SDS011;9294;51.106;7.028;2023-04-24T05:17:03;1.55;;;1.55;;
18336;SDS011;9294;51.106;7.028;2023-04-24T05:19:29;1.20;;;1.20;;
18336;SDS011;9294;51.106;7.028;2023-04-24T05:21:57;1.42;;;1.42;;
18336;SDS011;9294;51.106;7.028;2023-04-24T05:24:25;1.42;;;1.42;;
18336;SDS011;9294;51.106;7.028;2023-04-24T05:26:52;3.05;;;1.80;;
18336;SDS011;9294;51.106;7.028;2023-04-24T05:29:20;1.92;;;1.80;;
18336;SDS011;9294;51.106;7.028;2023-04-24T05:31:47;1.83;;;1.70;;
18336;SDS011;9294;51.106;7.028;2023-04-24T05:34:14;2.15;;;1.52;;
18336;SDS011;9294;51.106;7.028;2023-04-24T05:36:41;3.00;;;1.85;;
18336;SDS011;9294;51.106;7.028;2023-04-24T05:39:08;1.58;;;1.48;;
18336;SDS011;9294;51.106;7.028;2023-04-24T05:41:36;1.73;;;1.48;;
18336;SDS011;9294;51.106;7.028;2023-04-24T05:44:03;1.95;;;1.83;;
18336;SDS011;9294;51.106;7.028;2023-04-24T05:46:30;2.58;;;2.00;;
18336;SDS011;9294;51.106;7.028;2023-04-24T05:48:57;1.98;;;1.88;;
18336;SDS011;9294;51.106;7.028;2023-04-24T05:51:23;2.40;;;1.73;;
18336;SDS011;9294;51.106;7.028;2023-04-24T05:53:50;1.92;;;1.83;;
18336;SDS011;9294;51.106;7.028;2023-04-24T05:56:17;1.90;;;1.80;;
18336;SDS011;9294;51.106;7.028;2023-04-24T05:58:46;1.75;;;1.75;;
18336;SDS011;9294;51.106;7.028;2023-04-24T06:01:13;2.00;;;1.90;;
18336;SDS011;9294;51.106;7.028;2023-04-24T06:03:40;1.70;;;1.70;;
18336;SDS011;9294;51.106;7.028;2023-04-24T06:06:07;2.53;;;1.90;;
18336;SDS011;9294;51.106;7.028;2023-04-24T06:08:34;1.95;;;1.85;;
18336;SDS011;9294;51.106;7.028;2023-04-24T06:11:01;1.55;;;1.52;;
18336;SDS011;9294;51.106;7.028;2023-04-24T06:13:28;1.80;;;1.80;;
18336;SDS011;9294;51.106;7.028;2023-04-24T06:15:56;2.17;;;2.08;;
18336;SDS011;9294;51.106;7.028;2023-04-24T06:18:23;2.75;;;1.75;;
18336;SDS011;9294;51.106;7.028;2023-04-24T06:20:49;1.95;;;1.85;;
18336;SDS011;9294;51.106;7.028;2023-04-24T06:23:16;2.05;;;1.90;;
18336;SDS011;9294;51.106;7.028;2023-04-24T06:25:43;2.22;;;1.67;;
18336;SDS011;9294;51.106;7.028;2023-04-24T06:28:10;3.85;;;2.00;;
18336;SDS011;9294;51.106;7.028;2023-04-24T06:30:37;2.28;;;2.03;;
18336;SDS011;9294;51.106;7.028;2023-04-24T06:33:05;6.60;;;2.50;;
18336;SDS011;9294;51.106;7.028;2023-04-24T06:35:31;5.72;;;2.45;;
18336;SDS011;9294;51.106;7.028;2023-04-24T06:37:58;2.75;;;2.05;;
18336;SDS011;9294;51.106;7.028;2023-04-24T06:40:25;5.05;;;2.58;;
18336;SDS011;9294;51.106;7.028;2023-04-24T06:42:51;4.28;;;2.22;;
18336;SDS011;9294;51.106;7.028;2023-04-24T06:45:18;5.00;;;2.15;;
18336;SDS011;9294;51.106;7.028;2023-04-24T06:47:45;3.92;;;2.40;;
18336;SDS011;9294;51.106;7.028;2023-04-24T06:50:13;5.18;;;2.35;;
18336;SDS011;9294;51.106;7.028;2023-04-24T06:52:40;4.60;;;2.65;;
18336;SDS011;9294;51.106;7.028;2023-04-24T06:55:07;7.53;;;2.58;;
18336;SDS011;9294;51.106;7.028;2023-04-24T06:57:36;3.75;;;2.22;;
18336;SDS011;9294;51.106;7.028;2023-04-24T07:00:03;4.65;;;2.42;;
18336;SDS011;9294;51.106;7.028;2023-04-24T07:02:31;4.20;;;2.60;;
18336;SDS011;9294;51.106;7.028;2023-04-24T07:04:58;5.57;;;2.33;;
18336;SDS011;9294;51.106;7.028;2023-04-24T07:07:27;5.00;;;2.20;;
18336;SDS011;9294;51.106;7.028;2023-04-24T07:09:54;3.25;;;2.40;;
18336;SDS011;9294;51.106;7.028;2023-04-24T07:12:21;7.55;;;2.70;;
18336;SDS011;9294;51.106;7.028;2023-04-24T07:14:48;6.55;;;2.35;;
18336;SDS011;9294;51.106;7.028;2023-04-24T07:17:14;5.88;;;2.42;;
18336;SDS011;9294;51.106;7.028;2023-04-24T07:19:41;4.03;;;2.38;;
18336;SDS011;9294;51.106;7.028;2023-04-24T07:22:08;10.45;;;2.88;;
18336;SDS011;9294;51.106;7.028;2023-04-24T07:24:37;5.18;;;2.70;;
18336;SDS011;9294;51.106;7.028;2023-04-24T07:27:04;4.13;;;2.17;;
18336;SDS011;9294;51.106;7.028;2023-04-24T07:29:31;3.70;;;2.53;;
18336;SDS011;9294;51.106;7.028;2023-04-24T07:31:57;16.10;;;3.22;;
18336;SDS011;9294;51.106;7.028;2023-04-24T07:34:24;6.10;;;2.10;;
18336;SDS011;9294;51.106;7.028;2023-04-24T07:36:51;11.30;;;2.60;;
18336;SDS011;9294;51.106;7.028;2023-04-24T07:39:18;1.85;;;1.70;;
18336;SDS011;9294;51.106;7.028;2023-04-24T07:41:46;4.05;;;1.95;;
18336;SDS011;9294;51.106;7.028;2023-04-24T07:44:12;6.65;;;2.03;;
18336;SDS011;9294;51.106;7.028;2023-04-24T07:46:39;3.88;;;2.03;;
18336;SDS011;9294;51.106;7.028;2023-04-24T07:49:06;6.72;;;2.17;;
18336;SDS011;9294;51.106;7.028;2023-04-24T07:51:33;6.45;;;1.70;;
18336;SDS011;9294;51.106;7.028;2023-04-24T07:54:03;2.00;;;1.90;;
18336;SDS011;9294;51.106;7.028;2023-04-24T07:56:30;9.75;;;2.10;;
18336;SDS011;9294;51.106;7.028;2023-04-24T07:58:58;4.70;;;2.42;;
18336;SDS011;9294;51.106;7.028;2023-04-24T08:01:26;2.67;;;1.90;;
18336;SDS011;9294;51.106;7.028;2023-04-24T08:03:53;4.28;;;2.10;;
18336;SDS011;9294;51.106;7.028;2023-04-24T08:06:19;1.70;;;1.60;;
18336;SDS011;9294;51.106;7.028;2023-04-24T08:08:46;4.15;;;2.20;;
18336;SDS011;9294;51.106;7.028;2023-04-24T08:11:13;2.67;;;1.70;;
18336;SDS011;9294;51.106;7.028;2023-04-24T08:13:39;2.75;;;1.65;;
18336;SDS011;9294;51.106;7.028;2023-04-24T08:16:07;2.08;;;1.42;;
18336;SDS011;9294;51.106;7.028;2023-04-24T08:18:34;5.97;;;1.77;;
18336;SDS011;9294;51.106;7.028;2023-04-24T08:21:01;3.33;;;1.70;;
18336;SDS011;9294;51.106;7.028;2023-04-24T08:23:27;2.45;;;1.70;;
18336;SDS011;9294;51.106;7.028;2023-04-24T08:25:54;1.70;;;1.55;;
18336;SDS011;9294;51.106;7.028;2023-04-24T08:28:22;2.13;;;1.92;;
18336;SDS011;9294;51.106;7.028;2023-04-24T08:30:49;2.70;;;2.25;;
18336;SDS011;9294;51.106;7.028;2023-04-24T08:33:21;2.10;;;1.90;;
18336;SDS011;9294;51.106;7.028;2023-04-24T08:35:48;2.90;;;1.80;;
18336;SDS011;9294;51.106;7.028;2023-04-24T08:38:15;1.63;;;1.40;;
18336;SDS011;9294;51.106;7.028;2023-04-24T08:40:42;4.00;;;1.70;;
18336;SDS011;9294;51.106;7.028;2023-04-24T08:43:10;3.20;;;1.55;;
18336;SDS011;9294;51.106;7.028;2023-04-24T08:45:39;3.72;;;1.77;;
18336;SDS011;9294;51.106;7.028;2023-04-24T08:48:06;3.67;;;1.95;;
18336;SDS011;9294;51.106;7.028;2023-04-24T08:50:35;1.27;;;1.27;;
18336;SDS011;9294;51.106;7.028;2023-04-24T08:53:02;4.55;;;1.70;;
18336;SDS011;9294;51.106;7.028;2023-04-24T08:55:30;1.77;;;1.67;;
18336;SDS011;9294;51.106;7.028;2023-04-24T08:57:59;2.88;;;1.60;;
18336;SDS011;9294;51.106;7.028;2023-04-24T09:00:27;1.58;;;1.40;;
18336;SDS011;9294;51.106;7.028;2023-04-24T09:02:54;1.80;;;1.70;;
18336;SDS011;9294;51.106;7.028;2023-04-24T09:05:22;1.38;;;1.38;;
18336;SDS011;9294;51.106;7.028;2023-04-24T09:07:53;1.60;;;1.50;;
18336;SDS011;9294;51.106;7.028;2023-04-24T09:10:21;1.45;;;1.35;;
18336;SDS011;9294;51.106;7.028;2023-04-24T09:12:49;1.50;;;1.40;;
18336;SDS011;9294;51.106;7.028;2023-04-24T09:15:16;1.88;;;1.33;;
18336;SDS011;9294;51.106;7.028;2023-04-24T09:17:44;2.10;;;1.67;;
18336;SDS011;9294;51.106;7.028;2023-04-24T09:20:10;1.83;;;1.40;;
18336;SDS011;9294;51.106;7.028;2023-04-24T09:22:37;1.95;;;1.67;;
18336;SDS011;9294;51.106;7.028;2023-04-24T09:25:06;1.58;;;1.50;;
18336;SDS011;9294;51.106;7.028;2023-04-24T09:27:34;2.42;;;1.55;;
18336;SDS011;9294;51.106;7.028;2023-04-24T09:30:01;1.38;;;1.38;;
18336;SDS011;9294;51.106;7.028;2023-04-24T09:32:28;1.85;;;1.42;;
18336;SDS011;9294;51.106;7.028;2023-04-24T09:35:07;1.88;;;1.15;;
18336;SDS011;9294;51.106;7.028;2023-04-24T09:37:35;1.55;;;1.50;;
18336;SDS011;9294;51.106;7.028;2023-04-24T09:40:14;1.50;;;1.40;;
18336;SDS011;9294;51.106;7.028;2023-04-24T09:42:45;1.85;;;1.40;;
18336;SDS011;9294;51.106;7.028;2023-04-24T09:45:12;8.10;;;2.47;;
18336;SDS011;9294;51.106;7.028;2023-04-24T09:47:40;10.85;;;7.22;;
18336;SDS011;9294;51.106;7.028;2023-04-24T09:50:10;19.67;;;14.35;;
18336;SDS011;9294;51.106;7.028;2023-04-24T09:52:39;17.58;;;14.57;;
18336;SDS011;9294;51.106;7.028;2023-04-24T09:55:11;21.70;;;15.32;;
18336;SDS011;9294;51.106;7.028;2023-04-24T09:57:49;35.50;;;23.15;;
18336;SDS011;9294;51.106;7.028;2023-04-24T10:00:23;38.17;;;24.67;;
18336;SDS011;9294;51.106;7.028;2023-04-24T10:02:55;45.47;;;30.23;;
18336;SDS011;9294;51.106;7.028;2023-04-24T10:05:24;45.90;;;30.40;;
18336;SDS011;9294;51.106;7.028;2023-04-24T10:07:55;34.47;;;23.15;;
18336;SDS011;9294;51.106;7.028;2023-04-24T10:10:24;32.33;;;22.15;;
18336;SDS011;9294;51.106;7.028;2023-04-24T10:12:51;32.92;;;22.83;;
18336;SDS011;9294;51.106;7.028;2023-04-24T10:15:19;30.15;;;22.08;;
18336;SDS011;9294;51.106;7.028;2023-04-24T10:17:47;33.15;;;21.88;;
18336;SDS011;9294;51.106;7.028;2023-04-24T10:20:21;25.08;;;18.63;;
18336;SDS011;9294;51.106;7.028;2023-04-24T10:22:50;31.15;;;19.83;;
18336;SDS011;9294;51.106;7.028;2023-04-24T10:25:18;23.58;;;17.65;;
18336;SDS011;9294;51.106;7.028;2023-04-24T10:27:48;24.05;;;17.80;;
18336;SDS011;9294;51.106;7.028;2023-04-24T10:30:16;23.17;;;15.65;;
18336;SDS011;9294;51.106;7.028;2023-04-24T10:32:44;19.48;;;13.82;;
18336;SDS011;9294;51.106;7.028;2023-04-24T10:35:11;19.05;;;14.77;;
18336;SDS011;9294;51.106;7.028;2023-04-24T10:37:40;20.70;;;13.40;;
18336;SDS011;9294;51.106;7.028;2023-04-24T10:40:10;18.67;;;12.95;;
18336;SDS011;9294;51.106;7.028;2023-04-24T10:42:41;19.65;;;12.48;;
18336;SDS011;9294;51.106;7.028;2023-04-24T10:45:17;17.15;;;11.88;;
18336;SDS011;9294;51.106;7.028;2023-04-24T10:50:29;16.95;;;10.90;;
18336;SDS011;9294;51.106;7.028;2023-04-24T10:53:12;13.35;;;10.25;;
18336;SDS011;9294;51.106;7.028;2023-04-24T10:55:41;12.88;;;10.57;;
18336;SDS011;9294;51.106;7.028;2023-04-24T10:58:09;13.43;;;9.90;;
18336;SDS011;9294;51.106;7.028;2023-04-24T11:00:38;13.40;;;9.40;;
18336;SDS011;9294;51.106;7.028;2023-04-24T11:03:06;11.13;;;9.20;;
18336;SDS011;9294;51.106;7.028;2023-04-24T11:05:50;11.60;;;9.32;;
18336;SDS011;9294;51.106;7.028;2023-04-24T11:08:22;11.52;;;8.73;;
18336;SDS011;9294;51.106;7.028;2023-04-24T11:10:57;11.20;;;8.77;;
18336;SDS011;9294;51.106;7.028;2023-04-24T11:16:34;11.15;;;8.63;;
18336;SDS011;9294;51.106;7.028;2023-04-24T11:19:05;9.00;;;7.47;;
18336;SDS011;9294;51.106;7.028;2023-04-24T11:21:40;10.38;;;8.02;;
18336;SDS011;9294;51.106;7.028;2023-04-24T11:24:24;9.68;;;7.78;;
18336;SDS011;9294;51.106;7.028;2023-04-24T11:26:56;9.38;;;6.82;;
18336;SDS011;9294;51.106;7.028;2023-04-24T11:29:37;10.40;;;7.57;;
18336;SDS011;9294;51.106;7.028;2023-04-24T11:32:17;7.90;;;7.07;;
18336;SDS011;9294;51.106;7.028;2023-04-24T11:34:45;8.77;;;7.78;;
18336;SDS011;9294;51.106;7.028;2023-04-24T11:37:13;10.85;;;6.57;;
18336;SDS011;9294;51.106;7.028;2023-04-24T11:39:40;7.50;;;6.57;;
18336;SDS011;9294;51.106;7.028;2023-04-24T11:42:07;8.80;;;6.85;;
18336;SDS011;9294;51.106;7.028;2023-04-24T11:44:34;11.68;;;7.07;;
18336;SDS011;9294;51.106;7.028;2023-04-24T11:47:02;9.88;;;6.20;;
18336;SDS011;9294;51.106;7.028;2023-04-24T11:49:30;11.65;;;6.97;;
18336;SDS011;9294;51.106;7.028;2023-04-24T11:51:57;9.00;;;5.80;;
18336;SDS011;9294;51.106;7.028;2023-04-24T11:54:25;8.65;;;6.43;;
18336;SDS011;9294;51.106;7.028;2023-04-24T11:56:52;8.70;;;6.47;;
18336;SDS011;9294;51.106;7.028;2023-04-24T11:59:18;6.60;;;5.90;;
18336;SDS011;9294;51.106;7.028;2023-04-24T12:01:45;8.18;;;5.93;;
18336;SDS011;9294;51.106;7.028;2023-04-24T12:04:12;8.05;;;6.25;;
18336;SDS011;9294;51.106;7.028;2023-04-24T12:06:41;6.78;;;5.50;;
18336;SDS011;9294;51.106;7.028;2023-04-24T12:09:25;6.68;;;5.97;;
18336;SDS011;9294;51.106;7.028;2023-04-24T12:11:52;6.82;;;5.68;;
18336;SDS011;9294;51.106;7.028;2023-04-24T12:14:20;7.28;;;5.22;;
18336;SDS011;9294;51.106;7.028;2023-04-24T12:16:47;6.78;;;4.78;;
18336;SDS011;9294;51.106;7.028;2023-04-24T12:19:17;6.20;;;5.25;;
18336;SDS011;9294;51.106;7.028;2023-04-24T12:21:46;8.73;;;5.25;;
18336;SDS011;9294;51.106;7.028;2023-04-24T12:24:25;8.57;;;5.30;;
18336;SDS011;9294;51.106;7.028;2023-04-24T12:26:52;5.30;;;4.80;;
18336;SDS011;9294;51.106;7.028;2023-04-24T12:29:19;5.35;;;4.80;;
18336;SDS011;9294;51.106;7.028;2023-04-24T12:31:46;6.57;;;4.60;;
18336;SDS011;9294;51.106;7.028;2023-04-24T12:34:17;8.27;;;5.07;;
18336;SDS011;9294;51.106;7.028;2023-04-24T12:36:46;6.28;;;5.10;;
18336;SDS011;9294;51.106;7.028;2023-04-24T12:39:16;6.63;;;4.53;;
18336;SDS011;9294;51.106;7.028;2023-04-24T12:41:50;7.47;;;5.10;;
18336;SDS011;9294;51.106;7.028;2023-04-24T12:44:28;5.65;;;4.68;;
18336;SDS011;9294;51.106;7.028;2023-04-24T12:46:55;10.88;;;4.88;;
18336;SDS011;9294;51.106;7.028;2023-04-24T12:49:22;5.90;;;4.15;;
18336;SDS011;9294;51.106;7.028;2023-04-24T12:51:50;4.82;;;4.32;;
18336;SDS011;9294;51.106;7.028;2023-04-24T12:54:17;8.25;;;4.65;;
18336;SDS011;9294;51.106;7.028;2023-04-24T12:56:43;5.95;;;4.40;;
18336;SDS011;9294;51.106;7.028;2023-04-24T12:59:10;6.97;;;4.57;;
18336;SDS011;9294;51.106;7.028;2023-04-24T13:01:37;4.45;;;3.80;;
18336;SDS011;9294;51.106;7.028;2023-04-24T13:04:04;9.65;;;4.40;;
18336;SDS011;9294;51.106;7.028;2023-04-24T13:06:31;5.72;;;4.07;;
18336;SDS011;9294;51.106;7.028;2023-04-24T13:08:59;13.13;;;4.47;;
18336;SDS011;9294;51.106;7.028;2023-04-24T13:11:26;6.13;;;3.75;;
18336;SDS011;9294;51.106;7.028;2023-04-24T13:13:53;4.72;;;3.72;;
18336;SDS011;9294;51.106;7.028;2023-04-24T13:16:20;13.27;;;3.95;;
18336;SDS011;9294;51.106;7.028;2023-04-24T13:18:48;7.80;;;3.92;;
18336;SDS011;9294;51.106;7.028;2023-04-24T13:21:14;10.57;;;4.15;;
18336;SDS011;9294;51.106;7.028;2023-04-24T13:23:41;9.60;;;4.03;;
18336;SDS011;9294;51.106;7.028;2023-04-24T13:26:09;6.93;;;3.90;;
18336;SDS011;9294;51.106;7.028;2023-04-24T13:28:36;9.07;;;3.95;;
18336;SDS011;9294;51.106;7.028;2023-04-24T13:31:03;7.97;;;3.60;;
18336;SDS011;9294;51.106;7.028;2023-04-24T13:33:31;4.80;;;3.40;;
18336;SDS011;9294;51.106;7.028;2023-04-24T13:35:58;5.80;;;3.78;;
18336;SDS011;9294;51.106;7.028;2023-04-24T13:38:24;6.18;;;3.38;;
18336;SDS011;9294;51.106;7.028;2023-04-24T13:40:51;5.43;;;3.38;;
18336;SDS011;9294;51.106;7.028;2023-04-24T13:43:19;6.15;;;3.45;;
18336;SDS011;9294;51.106;7.028;2023-04-24T13:45:46;8.75;;;3.67;;
18336;SDS011;9294;51.106;7.028;2023-04-24T13:48:13;4.65;;;3.42;;
18336;SDS011;9294;51.106;7.028;2023-04-24T13:50:40;5.93;;;3.35;;
18336;SDS011;9294;51.106;7.028;2023-04-24T13:53:07;5.78;;;3.10;;
18336;SDS011;9294;51.106;7.028;2023-04-24T13:55:34;7.13;;;3.50;;
18336;SDS011;9294;51.106;7.028;2023-04-24T13:58:01;4.30;;;3.63;;
18336;SDS011;9294;51.106;7.028;2023-04-24T14:00:29;17.10;;;3.67;;
18336;SDS011;9294;51.106;7.028;2023-04-24T14:02:56;7.63;;;3.15;;
18336;SDS011;9294;51.106;7.028;2023-04-24T14:05:22;6.45;;;3.85;;
18336;SDS011;9294;51.106;7.028;2023-04-24T14:07:50;5.97;;;3.30;;
18336;SDS011;9294;51.106;7.028;2023-04-24T14:10:16;4.25;;;2.72;;
18336;SDS011;9294;51.106;7.028;2023-04-24T14:12:43;2.83;;;2.63;;
18336;SDS011;9294;51.106;7.028;2023-04-24T14:15:10;4.43;;;3.63;;
18336;SDS011;9294;51.106;7.028;2023-04-24T14:17:39;5.05;;;3.13;;
18336;SDS011;9294;51.106;7.028;2023-04-24T14:20:07;4.10;;;2.58;;
18336;SDS011;9294;51.106;7.028;2023-04-24T14:22:34;5.13;;;3.20;;
18336;SDS011;9294;51.106;7.028;2023-04-24T14:25:01;4.10;;;2.78;;
18336;SDS011;9294;51.106;7.028;2023-04-24T14:27:28;3.92;;;3.17;;
18336;SDS011;9294;51.106;7.028;2023-04-24T14:29:55;7.65;;;2.67;;
18336;SDS011;9294;51.106;7.028;2023-04-24T14:32:22;9.52;;;3.22;;
18336;SDS011;9294;51.106;7.028;2023-04-24T14:34:50;3.97;;;2.70;;
18336;SDS011;9294;51.106;7.028;2023-04-24T14:37:16;3.85;;;2.88;;
18336;SDS011;9294;51.106;7.028;2023-04-24T14:39:44;3.83;;;3.30;;
18336;SDS011;9294;51.106;7.028;2023-04-24T14:42:11;7.85;;;3.80;;
18336;SDS011;9294;51.106;7.028;2023-04-24T14:44:38;8.98;;;3.10;;
18336;SDS011;9294;51.106;7.028;2023-04-24T14:47:05;14.52;;;3.28;;
18336;SDS011;9294;51.106;7.028;2023-04-24T14:49:32;5.15;;;2.80;;
18336;SDS011;9294;51.106;7.028;2023-04-24T14:52:00;7.32;;;3.00;;
18336;SDS011;9294;51.106;7.028;2023-04-24T14:54:27;2.83;;;2.47;;
18336;SDS011;9294;51.106;7.028;2023-04-24T14:56:54;5.18;;;2.70;;
18336;SDS011;9294;51.106;7.028;2023-04-24T14:59:22;6.50;;;2.58;;
18336;SDS011;9294;51.106;7.028;2023-04-24T15:01:48;6.40;;;2.42;;
18336;SDS011;9294;51.106;7.028;2023-04-24T15:04:16;8.90;;;3.58;;
18336;SDS011;9294;51.106;7.028;2023-04-24T15:06:43;2.42;;;2.22;;